sensor_id;sensor_type;location;lat;lon;timestamp;temperature;humidity
8820;DHT22;4446;50.876;4.736;2023-04-25T00:00:52;7.80;99.90
8820;DHT22;4446;50.876;4.736;2023-04-25T00:03:20;7.90;99.90
8820;DHT22;4446;50.876;4.736;2023-04-25T00:05:49;7.90;99.90
8820;DHT22;4446;50.876;4.736;2023-04-25T00:08:17;7.90;99.90
8820;DHT22;4446;50.876;4.736;2023-04-25T00:10:44;7.90;99.90
8820;DHT22;4446;50.876;4.736;2023-04-25T00:13:11;7.80;99.90
8820;DHT22;4446;50.876;4.736;2023-04-25T00:15:39;7.80;99.90
8820;DHT22;4446;50.876;4.736;2023-04-25T00:18:07;7.80;99.90
8820;DHT22;4446;50.876;4.736;2023-04-25T00:20:35;7.80;99.90
8820;DHT22;4446;50.876;4.736;2023-04-25T00:23:04;7.80;99.90
8820;DHT22;4446;50.876;4.736;2023-04-25T00:25:31;7.70;99.90
8820;DHT22;4446;50.876;4.736;2023-04-25T00:27:58;7.70;99.90
8820;DHT22;4446;50.876;4.736;2023-04-25T00:30:25;7.70;99.90
8820;DHT22;4446;50.876;4.736;2023-04-25T00:32:52;7.70;99.90
8820;DHT22;4446;50.876;4.736;2023-04-25T00:35:19;7.70;99.90
8820;DHT22;4446;50.876;4.736;2023-04-25T00:37:46;7.70;99.90
8820;DHT22;4446;50.876;4.736;2023-04-25T00:40:15;7.60;99.90
8820;DHT22;4446;50.876;4.736;2023-04-25T00:42:42;7.60;99.90
8820;DHT22;4446;50.876;4.736;2023-04-25T00:45:13;7.60;99.90
8820;DHT22;4446;50.876;4.736;2023-04-25T00:47:40;7.70;99.90
8820;DHT22;4446;50.876;4.736;2023-04-25T00:50:08;7.60;99.90
8820;DHT22;4446;50.876;4.736;2023-04-25T00:52:36;7.70;99.90
8820;DHT22;4446;50.876;4.736;2023-04-25T00:55:04;7.70;99.90
8820;DHT22;4446;50.876;4.736;2023-04-25T00:57:33;7.70;99.90
8820;DHT22;4446;50.876;4.736;2023-04-25T01:00:01;7.80;99.90
8820;DHT22;4446;50.876;4.736;2023-04-25T01:02:29;7.70;99.90
8820;DHT22;4446;50.876;4.736;2023-04-25T01:04:57;7.70;99.90
8820;DHT22;4446;50.876;4.736;2023-04-25T01:07:25;7.70;99.90
8820;DHT22;4446;50.876;4.736;2023-04-25T01:09:52;7.70;99.90
8820;DHT22;4446;50.876;4.736;2023-04-25T01:12:19;7.70;99.90
8820;DHT22;4446;50.876;4.736;2023-04-25T01:14:48;7.70;99.90
8820;DHT22;4446;50.876;4.736;2023-04-25T01:17:16;7.70;99.90
8820;DHT22;4446;50.876;4.736;2023-04-25T01:19:44;7.70;99.90
8820;DHT22;4446;50.876;4.736;2023-04-25T01:22:13;7.60;99.90
8820;DHT22;4446;50.876;4.736;2023-04-25T01:24:40;7.60;99.90
8820;DHT22;4446;50.876;4.736;2023-04-25T01:27:08;7.50;99.90
8820;DHT22;4446;50.876;4.736;2023-04-25T01:29:36;7.40;99.90
8820;DHT22;4446;50.876;4.736;2023-04-25T01:32:04;7.40;99.90
8820;DHT22;4446;50.876;4.736;2023-04-25T01:34:32;7.30;99.90
8820;DHT22;4446;50.876;4.736;2023-04-25T01:37:00;7.30;99.90
8820;DHT22;4446;50.876;4.736;2023-04-25T01:39:29;7.30;99.90
8820;DHT22;4446;50.876;4.736;2023-04-25T01:41:57;7.20;99.90
8820;DHT22;4446;50.876;4.736;2023-04-25T01:44:24;7.20;99.90
8820;DHT22;4446;50.876;4.736;2023-04-25T01:46:51;7.10;99.90
8820;DHT22;4446;50.876;4.736;2023-04-25T01:49:18;7.10;99.90
8820;DHT22;4446;50.876;4.736;2023-04-25T01:51:45;7.00;99.90
8820;DHT22;4446;50.876;4.736;2023-04-25T01:54:13;7.00;99.90
8820;DHT22;4446;50.876;4.736;2023-04-25T01:56:42;7.10;99.90
8820;DHT22;4446;50.876;4.736;2023-04-25T01:59:09;7.10;99.90
8820;DHT22;4446;50.876;4.736;2023-04-25T02:01:36;7.10;99.90
8820;DHT22;4446;50.876;4.736;2023-04-25T02:04:03;7.10;99.90
8820;DHT22;4446;50.876;4.736;2023-04-25T02:06:30;7.00;99.90
8820;DHT22;4446;50.876;4.736;2023-04-25T02:08:57;7.00;99.90
8820;DHT22;4446;50.876;4.736;2023-04-25T02:11:24;6.90;99.90
8820;DHT22;4446;50.876;4.736;2023-04-25T02:13:53;6.90;99.90
8820;DHT22;4446;50.876;4.736;2023-04-25T02:16:20;6.90;99.90
8820;DHT22;4446;50.876;4.736;2023-04-25T02:18:47;6.90;99.90
8820;DHT22;4446;50.876;4.736;2023-04-25T02:21:14;6.90;99.90
8820;DHT22;4446;50.876;4.736;2023-04-25T02:23:41;6.80;99.90
8820;DHT22;4446;50.876;4.736;2023-04-25T02:26:08;6.80;99.90
8820;DHT22;4446;50.876;4.736;2023-04-25T02:28:36;6.80;99.90
8820;DHT22;4446;50.876;4.736;2023-04-25T02:31:05;6.80;99.90
8820;DHT22;4446;50.876;4.736;2023-04-25T02:33:32;6.80;99.90
8820;DHT22;4446;50.876;4.736;2023-04-25T02:36:00;6.80;99.90
8820;DHT22;4446;50.876;4.736;2023-04-25T02:38:27;6.80;99.90
8820;DHT22;4446;50.876;4.736;2023-04-25T02:40:53;6.70;99.90
8820;DHT22;4446;50.876;4.736;2023-04-25T02:43:21;6.80;99.90
8820;DHT22;4446;50.876;4.736;2023-04-25T02:45:48;6.80;99.90
8820;DHT22;4446;50.876;4.736;2023-04-25T02:48:16;6.80;99.90
8820;DHT22;4446;50.876;4.736;2023-04-25T02:50:43;6.80;99.90
8820;DHT22;4446;50.876;4.736;2023-04-25T02:53:10;6.80;99.90
8820;DHT22;4446;50.876;4.736;2023-04-25T02:55:37;6.80;99.90
8820;DHT22;4446;50.876;4.736;2023-04-25T02:58:06;6.80;99.90
8820;DHT22;4446;50.876;4.736;2023-04-25T03:00:33;6.80;99.90
8820;DHT22;4446;50.876;4.736;2023-04-25T03:02:59;6.90;99.90
8820;DHT22;4446;50.876;4.736;2023-04-25T03:05:28;6.80;99.90
8820;DHT22;4446;50.876;4.736;2023-04-25T03:07:55;6.80;99.90
8820;DHT22;4446;50.876;4.736;2023-04-25T03:10:22;6.80;99.90
8820;DHT22;4446;50.876;4.736;2023-04-25T03:12:49;6.80;99.90
8820;DHT22;4446;50.876;4.736;2023-04-25T03:15:16;6.80;99.90
8820;DHT22;4446;50.876;4.736;2023-04-25T03:17:43;6.80;99.90
8820;DHT22;4446;50.876;4.736;2023-04-25T03:20:11;6.70;99.90
8820;DHT22;4446;50.876;4.736;2023-04-25T03:22:39;6.80;99.90
8820;DHT22;4446;50.876;4.736;2023-04-25T03:25:07;6.70;99.90
8820;DHT22;4446;50.876;4.736;2023-04-25T03:27:34;6.70;99.90
8820;DHT22;4446;50.876;4.736;2023-04-25T03:30:01;6.70;99.90
8820;DHT22;4446;50.876;4.736;2023-04-25T03:32:28;6.70;99.90
8820;DHT22;4446;50.876;4.736;2023-04-25T03:34:55;6.80;99.90
8820;DHT22;4446;50.876;4.736;2023-04-25T03:37:22;6.80;99.90
8820;DHT22;4446;50.876;4.736;2023-04-25T03:39:50;6.70;99.90
8820;DHT22;4446;50.876;4.736;2023-04-25T03:42:17;6.70;99.90
8820;DHT22;4446;50.876;4.736;2023-04-25T03:44:45;6.70;99.90
8820;DHT22;4446;50.876;4.736;2023-04-25T03:47:12;6.90;99.90
8820;DHT22;4446;50.876;4.736;2023-04-25T03:49:39;6.80;99.90
8820;DHT22;4446;50.876;4.736;2023-04-25T03:52:06;6.70;99.90
8820;DHT22;4446;50.876;4.736;2023-04-25T03:54:33;6.70;99.90
8820;DHT22;4446;50.876;4.736;2023-04-25T03:57:01;6.70;99.90
8820;DHT22;4446;50.876;4.736;2023-04-25T03:59:28;6.60;99.90
8820;DHT22;4446;50.876;4.736;2023-04-25T04:01:56;6.60;99.90
8820;DHT22;4446;50.876;4.736;2023-04-25T04:04:23;6.60;99.90
8820;DHT22;4446;50.876;4.736;2023-04-25T04:06:50;6.60;99.90
8820;DHT22;4446;50.876;4.736;2023-04-25T04:09:18;6.60;99.90
8820;DHT22;4446;50.876;4.736;2023-04-25T04:11:46;6.50;99.90
8820;DHT22;4446;50.876;4.736;2023-04-25T04:14:14;6.50;99.90
8820;DHT22;4446;50.876;4.736;2023-04-25T04:16:41;6.40;99.90
8820;DHT22;4446;50.876;4.736;2023-04-25T04:19:08;6.40;99.90
8820;DHT22;4446;50.876;4.736;2023-04-25T04:21:35;6.40;99.90
8820;DHT22;4446;50.876;4.736;2023-04-25T04:24:02;6.40;99.90
8820;DHT22;4446;50.876;4.736;2023-04-25T04:26:32;6.30;99.90
8820;DHT22;4446;50.876;4.736;2023-04-25T04:29:00;6.20;99.90
8820;DHT22;4446;50.876;4.736;2023-04-25T04:31:28;6.20;99.90
8820;DHT22;4446;50.876;4.736;2023-04-25T04:33:55;6.20;99.90
8820;DHT22;4446;50.876;4.736;2023-04-25T04:36:22;6.20;99.90
8820;DHT22;4446;50.876;4.736;2023-04-25T04:38:51;6.10;99.90
8820;DHT22;4446;50.876;4.736;2023-04-25T04:41:19;6.20;99.90
8820;DHT22;4446;50.876;4.736;2023-04-25T04:43:46;6.20;99.90
8820;DHT22;4446;50.876;4.736;2023-04-25T04:46:13;6.20;99.90
8820;DHT22;4446;50.876;4.736;2023-04-25T04:48:41;6.20;99.90
8820;DHT22;4446;50.876;4.736;2023-04-25T04:51:10;6.20;99.90
8820;DHT22;4446;50.876;4.736;2023-04-25T04:53:37;6.20;99.90
8820;DHT22;4446;50.876;4.736;2023-04-25T04:56:04;6.20;99.90
8820;DHT22;4446;50.876;4.736;2023-04-25T04:58:31;6.20;99.90
8820;DHT22;4446;50.876;4.736;2023-04-25T05:00:58;6.20;99.90
8820;DHT22;4446;50.876;4.736;2023-04-25T05:03:25;6.20;99.90
8820;DHT22;4446;50.876;4.736;2023-04-25T05:05:54;6.30;99.90
8820;DHT22;4446;50.876;4.736;2023-04-25T05:08:21;6.30;99.90
8820;DHT22;4446;50.876;4.736;2023-04-25T05:10:48;6.30;99.90
8820;DHT22;4446;50.876;4.736;2023-04-25T05:13:15;6.30;99.90
8820;DHT22;4446;50.876;4.736;2023-04-25T05:15:42;6.40;99.90
8820;DHT22;4446;50.876;4.736;2023-04-25T05:18:09;6.40;99.90
8820;DHT22;4446;50.876;4.736;2023-04-25T05:20:36;6.40;99.90
8820;DHT22;4446;50.876;4.736;2023-04-25T05:23:04;6.40;99.90
8820;DHT22;4446;50.876;4.736;2023-04-25T05:25:31;6.50;99.90
8820;DHT22;4446;50.876;4.736;2023-04-25T05:27:58;6.50;99.90
8820;DHT22;4446;50.876;4.736;2023-04-25T05:30:25;6.50;99.90
8820;DHT22;4446;50.876;4.736;2023-04-25T05:32:52;6.40;99.90
8820;DHT22;4446;50.876;4.736;2023-04-25T05:35:19;6.30;99.90
8820;DHT22;4446;50.876;4.736;2023-04-25T05:37:46;6.40;99.90
8820;DHT22;4446;50.876;4.736;2023-04-25T05:40:15;6.30;99.90
8820;DHT22;4446;50.876;4.736;2023-04-25T05:42:42;6.30;99.90
8820;DHT22;4446;50.876;4.736;2023-04-25T05:45:09;6.30;99.90
8820;DHT22;4446;50.876;4.736;2023-04-25T05:47:36;6.30;99.90
8820;DHT22;4446;50.876;4.736;2023-04-25T05:50:04;6.30;99.90
8820;DHT22;4446;50.876;4.736;2023-04-25T05:52:31;6.30;99.90
8820;DHT22;4446;50.876;4.736;2023-04-25T05:54:58;6.30;99.90
8820;DHT22;4446;50.876;4.736;2023-04-25T05:57:27;6.40;99.90
8820;DHT22;4446;50.876;4.736;2023-04-25T05:59:54;6.40;99.90
8820;DHT22;4446;50.876;4.736;2023-04-25T06:02:21;6.60;99.90
8820;DHT22;4446;50.876;4.736;2023-04-25T06:04:49;6.60;99.90
8820;DHT22;4446;50.876;4.736;2023-04-25T06:07:16;6.60;99.90
8820;DHT22;4446;50.876;4.736;2023-04-25T06:09:44;6.60;99.90
8820;DHT22;4446;50.876;4.736;2023-04-25T06:12:11;6.60;99.90
8820;DHT22;4446;50.876;4.736;2023-04-25T06:14:39;6.60;99.90
8820;DHT22;4446;50.876;4.736;2023-04-25T06:17:06;6.60;99.90
8820;DHT22;4446;50.876;4.736;2023-04-25T06:19:34;6.70;99.90
8820;DHT22;4446;50.876;4.736;2023-04-25T06:22:02;6.70;99.90
8820;DHT22;4446;50.876;4.736;2023-04-25T06:24:29;6.80;99.90
8820;DHT22;4446;50.876;4.736;2023-04-25T06:26:56;6.90;99.90
8820;DHT22;4446;50.876;4.736;2023-04-25T06:29:23;7.00;99.90
8820;DHT22;4446;50.876;4.736;2023-04-25T06:31:51;7.10;99.90
8820;DHT22;4446;50.876;4.736;2023-04-25T06:34:19;7.20;99.90
8820;DHT22;4446;50.876;4.736;2023-04-25T06:36:46;7.30;99.90
8820;DHT22;4446;50.876;4.736;2023-04-25T06:39:13;7.40;99.90
8820;DHT22;4446;50.876;4.736;2023-04-25T06:41:40;7.40;99.90
8820;DHT22;4446;50.876;4.736;2023-04-25T06:44:07;7.40;99.90
8820;DHT22;4446;50.876;4.736;2023-04-25T06:46:34;7.50;99.90
8820;DHT22;4446;50.876;4.736;2023-04-25T06:49:03;7.50;99.90
8820;DHT22;4446;50.876;4.736;2023-04-25T06:51:30;7.50;99.90
8820;DHT22;4446;50.876;4.736;2023-04-25T06:53:57;7.60;99.90
8820;DHT22;4446;50.876;4.736;2023-04-25T06:56:24;7.70;99.90
8820;DHT22;4446;50.876;4.736;2023-04-25T06:58:51;7.80;99.90
8820;DHT22;4446;50.876;4.736;2023-04-25T07:01:18;7.90;99.90
8820;DHT22;4446;50.876;4.736;2023-04-25T07:03:45;7.90;99.90
8820;DHT22;4446;50.876;4.736;2023-04-25T07:06:13;7.90;99.90
8820;DHT22;4446;50.876;4.736;2023-04-25T07:08:40;8.00;99.90
8820;DHT22;4446;50.876;4.736;2023-04-25T07:11:08;8.00;99.90
8820;DHT22;4446;50.876;4.736;2023-04-25T07:13:34;8.10;99.90
8820;DHT22;4446;50.876;4.736;2023-04-25T07:16:02;8.10;99.90
8820;DHT22;4446;50.876;4.736;2023-04-25T07:18:29;8.20;99.90
8820;DHT22;4446;50.876;4.736;2023-04-25T07:20:56;8.30;99.90
8820;DHT22;4446;50.876;4.736;2023-04-25T07:23:24;8.40;99.90
8820;DHT22;4446;50.876;4.736;2023-04-25T07:25:51;8.40;99.90
8820;DHT22;4446;50.876;4.736;2023-04-25T07:28:18;8.50;99.90
8820;DHT22;4446;50.876;4.736;2023-04-25T07:30:45;8.60;99.90
8820;DHT22;4446;50.876;4.736;2023-04-25T07:33:12;8.70;99.90
8820;DHT22;4446;50.876;4.736;2023-04-25T07:35:40;8.70;99.90
8820;DHT22;4446;50.876;4.736;2023-04-25T07:38:07;8.80;99.90
8820;DHT22;4446;50.876;4.736;2023-04-25T07:40:37;8.90;99.90
8820;DHT22;4446;50.876;4.736;2023-04-25T07:43:04;8.90;99.90
8820;DHT22;4446;50.876;4.736;2023-04-25T07:45:31;9.10;99.90
8820;DHT22;4446;50.876;4.736;2023-04-25T07:47:58;9.10;99.90
8820;DHT22;4446;50.876;4.736;2023-04-25T07:50:25;9.10;99.90
8820;DHT22;4446;50.876;4.736;2023-04-25T07:52:52;9.10;99.90
8820;DHT22;4446;50.876;4.736;2023-04-25T07:55:19;9.30;99.90
8820;DHT22;4446;50.876;4.736;2023-04-25T07:57:47;9.40;99.90
8820;DHT22;4446;50.876;4.736;2023-04-25T08:00:15;9.60;99.90
8820;DHT22;4446;50.876;4.736;2023-04-25T08:02:42;9.80;99.90
8820;DHT22;4446;50.876;4.736;2023-04-25T08:05:09;10.00;99.90
8820;DHT22;4446;50.876;4.736;2023-04-25T08:07:39;10.10;99.90
8820;DHT22;4446;50.876;4.736;2023-04-25T08:10:08;10.20;99.90
8820;DHT22;4446;50.876;4.736;2023-04-25T08:12:35;10.00;99.90
8820;DHT22;4446;50.876;4.736;2023-04-25T08:15:05;10.10;99.90
8820;DHT22;4446;50.876;4.736;2023-04-25T08:17:32;9.90;99.90
8820;DHT22;4446;50.876;4.736;2023-04-25T08:20:00;9.70;99.90
8820;DHT22;4446;50.876;4.736;2023-04-25T08:22:30;9.50;99.90
8820;DHT22;4446;50.876;4.736;2023-04-25T08:24:57;9.30;99.90
8820;DHT22;4446;50.876;4.736;2023-04-25T08:27:24;9.20;99.90
8820;DHT22;4446;50.876;4.736;2023-04-25T08:29:51;9.20;99.90
8820;DHT22;4446;50.876;4.736;2023-04-25T08:32:19;9.10;99.90
8820;DHT22;4446;50.876;4.736;2023-04-25T08:34:47;9.00;99.90
8820;DHT22;4446;50.876;4.736;2023-04-25T08:37:14;8.80;99.90
8820;DHT22;4446;50.876;4.736;2023-04-25T08:39:41;8.70;99.90
8820;DHT22;4446;50.876;4.736;2023-04-25T08:42:09;8.70;99.90
8820;DHT22;4446;50.876;4.736;2023-04-25T08:44:36;8.70;99.90
8820;DHT22;4446;50.876;4.736;2023-04-25T08:47:04;8.60;99.90
8820;DHT22;4446;50.876;4.736;2023-04-25T08:49:33;8.60;99.90
8820;DHT22;4446;50.876;4.736;2023-04-25T08:52:02;8.60;99.90
8820;DHT22;4446;50.876;4.736;2023-04-25T08:54:31;8.60;99.90
8820;DHT22;4446;50.876;4.736;2023-04-25T08:57:01;8.60;99.90
8820;DHT22;4446;50.876;4.736;2023-04-25T08:59:30;8.70;99.90
8820;DHT22;4446;50.876;4.736;2023-04-25T09:01:57;8.90;99.90
8820;DHT22;4446;50.876;4.736;2023-04-25T09:04:24;9.20;99.90
8820;DHT22;4446;50.876;4.736;2023-04-25T09:06:53;9.40;99.90
8820;DHT22;4446;50.876;4.736;2023-04-25T09:09:20;9.50;99.90
8820;DHT22;4446;50.876;4.736;2023-04-25T09:11:47;9.50;99.90
8820;DHT22;4446;50.876;4.736;2023-04-25T09:14:15;9.50;99.90
8820;DHT22;4446;50.876;4.736;2023-04-25T09:16:59;9.40;99.90
8820;DHT22;4446;50.876;4.736;2023-04-25T09:19:28;9.50;99.90
8820;DHT22;4446;50.876;4.736;2023-04-25T09:21:58;9.70;99.90
8820;DHT22;4446;50.876;4.736;2023-04-25T09:24:33;10.10;99.90
8820;DHT22;4446;50.876;4.736;2023-04-25T09:27:03;10.70;99.90
8820;DHT22;4446;50.876;4.736;2023-04-25T09:29:31;11.00;99.90
8820;DHT22;4446;50.876;4.736;2023-04-25T09:32:19;11.10;99.90
8820;DHT22;4446;50.876;4.736;2023-04-25T09:34:47;11.10;99.90
8820;DHT22;4446;50.876;4.736;2023-04-25T09:37:25;10.80;99.90
8820;DHT22;4446;50.876;4.736;2023-04-25T09:39:54;10.40;99.90
8820;DHT22;4446;50.876;4.736;2023-04-25T09:42:23;10.30;99.90
8820;DHT22;4446;50.876;4.736;2023-04-25T09:44:52;10.10;99.90
8820;DHT22;4446;50.876;4.736;2023-04-25T09:47:20;10.00;99.90
8820;DHT22;4446;50.876;4.736;2023-04-25T09:49:49;9.90;99.90
8820;DHT22;4446;50.876;4.736;2023-04-25T09:52:19;9.90;99.90
8820;DHT22;4446;50.876;4.736;2023-04-25T09:54:48;9.90;99.90
8820;DHT22;4446;50.876;4.736;2023-04-25T09:57:16;9.90;99.90
8820;DHT22;4446;50.876;4.736;2023-04-25T09:59:44;9.90;99.90
8820;DHT22;4446;50.876;4.736;2023-04-25T10:02:13;10.10;99.90
8820;DHT22;4446;50.876;4.736;2023-04-25T10:04:41;10.10;99.90
8820;DHT22;4446;50.876;4.736;2023-04-25T10:07:09;10.00;99.90
8820;DHT22;4446;50.876;4.736;2023-04-25T10:09:39;10.00;99.90
8820;DHT22;4446;50.876;4.736;2023-04-25T10:12:07;9.90;99.90
8820;DHT22;4446;50.876;4.736;2023-04-25T10:14:34;10.00;99.90
8820;DHT22;4446;50.876;4.736;2023-04-25T10:17:01;10.20;99.90
8820;DHT22;4446;50.876;4.736;2023-04-25T10:19:29;10.20;99.90
8820;DHT22;4446;50.876;4.736;2023-04-25T10:22:04;10.30;99.90
8820;DHT22;4446;50.876;4.736;2023-04-25T10:24:32;10.50;99.90
8820;DHT22;4446;50.876;4.736;2023-04-25T10:27:01;10.80;99.90
8820;DHT22;4446;50.876;4.736;2023-04-25T10:29:29;11.10;99.90
8820;DHT22;4446;50.876;4.736;2023-04-25T10:31:57;11.50;99.90
8820;DHT22;4446;50.876;4.736;2023-04-25T10:34:24;11.60;99.90
8820;DHT22;4446;50.876;4.736;2023-04-25T10:37:04;11.60;99.90
8820;DHT22;4446;50.876;4.736;2023-04-25T10:39:32;11.60;99.90
8820;DHT22;4446;50.876;4.736;2023-04-25T10:42:02;11.70;99.90
8820;DHT22;4446;50.876;4.736;2023-04-25T10:44:30;11.80;99.90
8820;DHT22;4446;50.876;4.736;2023-04-25T10:46:58;11.80;99.90
8820;DHT22;4446;50.876;4.736;2023-04-25T10:49:30;11.80;99.90
8820;DHT22;4446;50.876;4.736;2023-04-25T10:52:17;11.70;99.90
8820;DHT22;4446;50.876;4.736;2023-04-25T10:54:47;11.40;99.90
8820;DHT22;4446;50.876;4.736;2023-04-25T10:57:31;11.40;99.90
8820;DHT22;4446;50.876;4.736;2023-04-25T11:00:00;11.70;99.90
8820;DHT22;4446;50.876;4.736;2023-04-25T11:02:31;12.10;99.90
8820;DHT22;4446;50.876;4.736;2023-04-25T11:04:59;12.50;99.90
8820;DHT22;4446;50.876;4.736;2023-04-25T11:07:34;12.80;99.90
8820;DHT22;4446;50.876;4.736;2023-04-25T11:10:03;13.10;99.90
8820;DHT22;4446;50.876;4.736;2023-04-25T11:12:32;13.00;99.90
8820;DHT22;4446;50.876;4.736;2023-04-25T11:15:01;12.60;99.90
8820;DHT22;4446;50.876;4.736;2023-04-25T11:17:28;12.60;99.90
8820;DHT22;4446;50.876;4.736;2023-04-25T11:19:55;12.50;99.90
8820;DHT22;4446;50.876;4.736;2023-04-25T11:22:23;12.40;99.90
8820;DHT22;4446;50.876;4.736;2023-04-25T11:24:50;12.00;99.90
8820;DHT22;4446;50.876;4.736;2023-04-25T11:27:17;12.00;99.90
8820;DHT22;4446;50.876;4.736;2023-04-25T11:29:46;12.00;99.90
8820;DHT22;4446;50.876;4.736;2023-04-25T11:32:15;12.00;99.90
8820;DHT22;4446;50.876;4.736;2023-04-25T11:34:44;12.10;99.90
8820;DHT22;4446;50.876;4.736;2023-04-25T11:37:11;12.10;99.90
8820;DHT22;4446;50.876;4.736;2023-04-25T11:39:43;11.90;99.90
8820;DHT22;4446;50.876;4.736;2023-04-25T11:42:12;11.70;99.90
8820;DHT22;4446;50.876;4.736;2023-04-25T11:44:39;11.60;99.90
8820;DHT22;4446;50.876;4.736;2023-04-25T11:47:08;11.40;99.90
8820;DHT22;4446;50.876;4.736;2023-04-25T11:49:35;11.50;99.90
8820;DHT22;4446;50.876;4.736;2023-04-25T11:52:02;11.60;99.90
8820;DHT22;4446;50.876;4.736;2023-04-25T11:54:30;11.70;99.90
8820;DHT22;4446;50.876;4.736;2023-04-25T11:56:57;12.10;99.90
8820;DHT22;4446;50.876;4.736;2023-04-25T11:59:25;12.30;99.90
8820;DHT22;4446;50.876;4.736;2023-04-25T12:01:52;12.40;99.90
8820;DHT22;4446;50.876;4.736;2023-04-25T12:04:22;12.40;99.90
8820;DHT22;4446;50.876;4.736;2023-04-25T12:06:51;12.50;99.90
8820;DHT22;4446;50.876;4.736;2023-04-25T12:09:19;12.50;99.90
8820;DHT22;4446;50.876;4.736;2023-04-25T12:11:48;12.30;99.90
8820;DHT22;4446;50.876;4.736;2023-04-25T12:14:22;12.10;99.90
8820;DHT22;4446;50.876;4.736;2023-04-25T12:16:50;12.10;99.90
8820;DHT22;4446;50.876;4.736;2023-04-25T12:19:19;12.00;99.90
8820;DHT22;4446;50.876;4.736;2023-04-25T12:21:48;12.00;99.90
8820;DHT22;4446;50.876;4.736;2023-04-25T12:24:17;12.10;99.90
8820;DHT22;4446;50.876;4.736;2023-04-25T12:26:49;12.20;99.90
8820;DHT22;4446;50.876;4.736;2023-04-25T12:29:22;12.30;99.90
8820;DHT22;4446;50.876;4.736;2023-04-25T12:31:51;12.60;99.90
8820;DHT22;4446;50.876;4.736;2023-04-25T12:34:19;12.80;99.90
8820;DHT22;4446;50.876;4.736;2023-04-25T12:36:48;12.80;99.90
8820;DHT22;4446;50.876;4.736;2023-04-25T12:39:15;12.50;99.90
8820;DHT22;4446;50.876;4.736;2023-04-25T12:41:43;12.40;99.90
8820;DHT22;4446;50.876;4.736;2023-04-25T12:44:10;12.60;99.90
8820;DHT22;4446;50.876;4.736;2023-04-25T12:46:37;12.90;99.90
8820;DHT22;4446;50.876;4.736;2023-04-25T12:49:04;12.90;99.90
8820;DHT22;4446;50.876;4.736;2023-04-25T12:51:32;12.90;99.90
8820;DHT22;4446;50.876;4.736;2023-04-25T12:54:02;12.90;99.90
8820;DHT22;4446;50.876;4.736;2023-04-25T12:56:29;12.90;99.90
8820;DHT22;4446;50.876;4.736;2023-04-25T12:58:57;12.80;99.90
8820;DHT22;4446;50.876;4.736;2023-04-25T13:01:24;13.10;99.90
8820;DHT22;4446;50.876;4.736;2023-04-25T13:03:52;13.40;99.90
8820;DHT22;4446;50.876;4.736;2023-04-25T13:06:20;13.70;99.90
8820;DHT22;4446;50.876;4.736;2023-04-25T13:08:47;13.90;99.90
8820;DHT22;4446;50.876;4.736;2023-04-25T13:11:15;13.70;99.90
8820;DHT22;4446;50.876;4.736;2023-04-25T13:13:43;13.30;99.90
8820;DHT22;4446;50.876;4.736;2023-04-25T13:16:11;12.90;99.90
8820;DHT22;4446;50.876;4.736;2023-04-25T13:18:39;12.80;99.90
8820;DHT22;4446;50.876;4.736;2023-04-25T13:21:06;12.50;99.90
8820;DHT22;4446;50.876;4.736;2023-04-25T13:23:33;12.40;99.90
8820;DHT22;4446;50.876;4.736;2023-04-25T13:26:00;12.40;99.90
8820;DHT22;4446;50.876;4.736;2023-04-25T13:28:28;12.30;99.90
8820;DHT22;4446;50.876;4.736;2023-04-25T13:30:56;12.30;99.90
8820;DHT22;4446;50.876;4.736;2023-04-25T13:33:23;12.40;99.90
8820;DHT22;4446;50.876;4.736;2023-04-25T13:35:51;12.70;99.90
8820;DHT22;4446;50.876;4.736;2023-04-25T13:38:22;13.10;99.90
8820;DHT22;4446;50.876;4.736;2023-04-25T13:40:50;13.60;99.90
8820;DHT22;4446;50.876;4.736;2023-04-25T13:43:18;14.10;99.90
8820;DHT22;4446;50.876;4.736;2023-04-25T13:45:47;14.80;99.90
8820;DHT22;4446;50.876;4.736;2023-04-25T13:48:14;15.30;99.90
8820;DHT22;4446;50.876;4.736;2023-04-25T13:50:41;15.80;99.90
8820;DHT22;4446;50.876;4.736;2023-04-25T13:53:08;15.40;99.90
8820;DHT22;4446;50.876;4.736;2023-04-25T13:55:35;15.10;99.90
8820;DHT22;4446;50.876;4.736;2023-04-25T13:58:04;15.30;99.90
8820;DHT22;4446;50.876;4.736;2023-04-25T14:00:34;15.80;99.90
8820;DHT22;4446;50.876;4.736;2023-04-25T14:03:03;16.00;99.90
8820;DHT22;4446;50.876;4.736;2023-04-25T14:05:33;16.50;99.90
8820;DHT22;4446;50.876;4.736;2023-04-25T14:08:05;17.10;99.90
8820;DHT22;4446;50.876;4.736;2023-04-25T14:10:32;17.60;99.90
8820;DHT22;4446;50.876;4.736;2023-04-25T14:13:01;18.30;99.80
8820;DHT22;4446;50.876;4.736;2023-04-25T14:15:29;18.00;99.80
8820;DHT22;4446;50.876;4.736;2023-04-25T14:17:57;17.30;99.40
8820;DHT22;4446;50.876;4.736;2023-04-25T14:20:26;16.10;99.90
8820;DHT22;4446;50.876;4.736;2023-04-25T14:22:53;15.40;99.90
8820;DHT22;4446;50.876;4.736;2023-04-25T14:25:21;15.30;99.90
8820;DHT22;4446;50.876;4.736;2023-04-25T14:27:49;16.00;99.90
8820;DHT22;4446;50.876;4.736;2023-04-25T14:30:17;16.70;99.90
8820;DHT22;4446;50.876;4.736;2023-04-25T14:32:44;17.90;99.30
8820;DHT22;4446;50.876;4.736;2023-04-25T14:35:11;18.00;99.90
8820;DHT22;4446;50.876;4.736;2023-04-25T14:37:40;18.70;99.00
8820;DHT22;4446;50.876;4.736;2023-04-25T14:40:08;18.40;97.60
8820;DHT22;4446;50.876;4.736;2023-04-25T14:42:36;17.70;98.10
8820;DHT22;4446;50.876;4.736;2023-04-25T14:45:04;17.10;99.80
8820;DHT22;4446;50.876;4.736;2023-04-25T14:47:31;16.30;98.60
8820;DHT22;4446;50.876;4.736;2023-04-25T14:49:58;15.90;99.50
8820;DHT22;4446;50.876;4.736;2023-04-25T14:52:27;15.00;99.10
8820;DHT22;4446;50.876;4.736;2023-04-25T14:55:00;14.10;99.90
8820;DHT22;4446;50.876;4.736;2023-04-25T14:57:33;13.70;99.90
8820;DHT22;4446;50.876;4.736;2023-04-25T15:00:01;14.00;99.90
8820;DHT22;4446;50.876;4.736;2023-04-25T15:02:34;14.90;99.90
8820;DHT22;4446;50.876;4.736;2023-04-25T15:05:01;15.80;99.90
8820;DHT22;4446;50.876;4.736;2023-04-25T15:07:28;16.30;99.50
8820;DHT22;4446;50.876;4.736;2023-04-25T15:10:00;16.40;98.90
8820;DHT22;4446;50.876;4.736;2023-04-25T15:12:28;15.80;99.80
8820;DHT22;4446;50.876;4.736;2023-04-25T15:14:55;15.30;99.90
8820;DHT22;4446;50.876;4.736;2023-04-25T15:17:23;14.80;99.90
8820;DHT22;4446;50.876;4.736;2023-04-25T15:19:50;14.30;99.90
8820;DHT22;4446;50.876;4.736;2023-04-25T15:22:17;14.30;99.90
8820;DHT22;4446;50.876;4.736;2023-04-25T15:24:48;14.10;99.90
8820;DHT22;4446;50.876;4.736;2023-04-25T15:27:18;13.90;99.90
8820;DHT22;4446;50.876;4.736;2023-04-25T15:29:48;13.60;99.90
8820;DHT22;4446;50.876;4.736;2023-04-25T15:32:16;13.30;99.90
8820;DHT22;4446;50.876;4.736;2023-04-25T15:34:49;13.10;99.90
8820;DHT22;4446;50.876;4.736;2023-04-25T15:37:19;13.00;99.90
8820;DHT22;4446;50.876;4.736;2023-04-25T15:39:46;13.10;99.90
8820;DHT22;4446;50.876;4.736;2023-04-25T15:42:13;13.20;99.90
8820;DHT22;4446;50.876;4.736;2023-04-25T15:44:42;12.90;99.90
8820;DHT22;4446;50.876;4.736;2023-04-25T15:47:08;12.70;99.90
8820;DHT22;4446;50.876;4.736;2023-04-25T15:49:35;12.50;99.90
8820;DHT22;4446;50.876;4.736;2023-04-25T15:52:02;12.20;99.90
8820;DHT22;4446;50.876;4.736;2023-04-25T15:54:30;12.10;99.90
8820;DHT22;4446;50.876;4.736;2023-04-25T15:56:57;11.90;99.90
8820;DHT22;4446;50.876;4.736;2023-04-25T15:59:24;11.80;99.90
8820;DHT22;4446;50.876;4.736;2023-04-25T16:01:52;11.90;99.90
8820;DHT22;4446;50.876;4.736;2023-04-25T16:04:19;12.00;99.90
8820;DHT22;4446;50.876;4.736;2023-04-25T16:06:47;12.00;99.90
8820;DHT22;4446;50.876;4.736;2023-04-25T16:09:13;11.80;99.90
8820;DHT22;4446;50.876;4.736;2023-04-25T16:11:42;11.80;99.90
8820;DHT22;4446;50.876;4.736;2023-04-25T16:14:09;11.80;99.90
8820;DHT22;4446;50.876;4.736;2023-04-25T16:16:36;11.70;99.90